sensor_id;sensor_type;location;lat;lon;timestamp;temperature;humidity
9790;DHT22;4934;50.852;8.098;2024-01-06T00:02:14;4.80;99.90
9790;DHT22;4934;50.852;8.098;2024-01-06T00:04:40;4.70;99.90
9790;DHT22;4934;50.852;8.098;2024-01-06T00:07:05;4.70;99.90
9790;DHT22;4934;50.852;8.098;2024-01-06T00:09:31;4.70;99.90
9790;DHT22;4934;50.852;8.098;2024-01-06T00:11:57;4.70;99.90
9790;DHT22;4934;50.852;8.098;2024-01-06T00:14:22;4.70;99.90
9790;DHT22;4934;50.852;8.098;2024-01-06T00:16:48;4.60;99.90
9790;DHT22;4934;50.852;8.098;2024-01-06T00:19:13;4.60;99.90
9790;DHT22;4934;50.852;8.098;2024-01-06T00:21:39;4.70;99.90
9790;DHT22;4934;50.852;8.098;2024-01-06T00:24:05;4.70;99.90
9790;DHT22;4934;50.852;8.098;2024-01-06T00:26:30;4.60;99.90
9790;DHT22;4934;50.852;8.098;2024-01-06T00:28:56;4.70;99.90
9790;DHT22;4934;50.852;8.098;2024-01-06T00:31:21;4.70;99.90
9790;DHT22;4934;50.852;8.098;2024-01-06T00:33:47;4.70;99.90
9790;DHT22;4934;50.852;8.098;2024-01-06T00:36:12;4.70;99.90
9790;DHT22;4934;50.852;8.098;2024-01-06T00:38:38;4.70;99.90
9790;DHT22;4934;50.852;8.098;2024-01-06T00:41:04;4.70;99.90
9790;DHT22;4934;50.852;8.098;2024-01-06T00:43:29;4.80;99.90
9790;DHT22;4934;50.852;8.098;2024-01-06T00:45:55;4.70;99.90
9790;DHT22;4934;50.852;8.098;2024-01-06T00:48:20;4.70;99.90
9790;DHT22;4934;50.852;8.098;2024-01-06T00:50:46;4.70;99.90
9790;DHT22;4934;50.852;8.098;2024-01-06T00:53:12;4.70;99.90
9790;DHT22;4934;50.852;8.098;2024-01-06T00:55:38;4.80;99.90
9790;DHT22;4934;50.852;8.098;2024-01-06T00:58:03;4.70;99.90
9790;DHT22;4934;50.852;8.098;2024-01-06T01:00:29;4.70;99.90
9790;DHT22;4934;50.852;8.098;2024-01-06T01:02:54;4.60;99.90
9790;DHT22;4934;50.852;8.098;2024-01-06T01:05:20;4.60;99.90
9790;DHT22;4934;50.852;8.098;2024-01-06T01:07:46;4.60;99.90
9790;DHT22;4934;50.852;8.098;2024-01-06T01:10:11;4.60;99.90
9790;DHT22;4934;50.852;8.098;2024-01-06T01:12:37;4.60;99.90
9790;DHT22;4934;50.852;8.098;2024-01-06T01:15:03;4.60;99.90
9790;DHT22;4934;50.852;8.098;2024-01-06T01:17:29;4.60;99.90
9790;DHT22;4934;50.852;8.098;2024-01-06T01:19:55;4.60;99.90
9790;DHT22;4934;50.852;8.098;2024-01-06T01:22:20;4.60;99.90
9790;DHT22;4934;50.852;8.098;2024-01-06T01:24:46;4.60;99.90
9790;DHT22;4934;50.852;8.098;2024-01-06T01:27:12;4.60;99.90
9790;DHT22;4934;50.852;8.098;2024-01-06T01:29:37;4.60;99.90
9790;DHT22;4934;50.852;8.098;2024-01-06T01:32:03;4.60;99.90
9790;DHT22;4934;50.852;8.098;2024-01-06T01:34:29;4.60;99.90
9790;DHT22;4934;50.852;8.098;2024-01-06T01:36:55;4.60;99.90
9790;DHT22;4934;50.852;8.098;2024-01-06T01:39:20;4.60;99.90
9790;DHT22;4934;50.852;8.098;2024-01-06T01:41:46;4.60;99.90
9790;DHT22;4934;50.852;8.098;2024-01-06T01:44:12;4.60;99.90
9790;DHT22;4934;50.852;8.098;2024-01-06T01:46:37;4.60;99.90
9790;DHT22;4934;50.852;8.098;2024-01-06T01:49:04;4.60;99.90
9790;DHT22;4934;50.852;8.098;2024-01-06T01:51:32;4.60;99.90
9790;DHT22;4934;50.852;8.098;2024-01-06T01:54:03;4.60;99.90
9790;DHT22;4934;50.852;8.098;2024-01-06T01:56:30;4.60;99.90
9790;DHT22;4934;50.852;8.098;2024-01-06T01:59:01;4.60;99.90
9790;DHT22;4934;50.852;8.098;2024-01-06T02:01:29;4.70;99.90
9790;DHT22;4934;50.852;8.098;2024-01-06T02:03:54;4.70;99.90
9790;DHT22;4934;50.852;8.098;2024-01-06T02:06:20;4.70;99.90
9790;DHT22;4934;50.852;8.098;2024-01-06T02:08:45;4.70;99.90
9790;DHT22;4934;50.852;8.098;2024-01-06T02:11:11;4.70;99.90
9790;DHT22;4934;50.852;8.098;2024-01-06T02:13:37;4.70;99.90
9790;DHT22;4934;50.852;8.098;2024-01-06T02:16:04;4.70;99.90
9790;DHT22;4934;50.852;8.098;2024-01-06T02:18:33;4.70;99.90
9790;DHT22;4934;50.852;8.098;2024-01-06T02:21:00;4.70;99.90
9790;DHT22;4934;50.852;8.098;2024-01-06T02:23:27;4.70;99.90
9790;DHT22;4934;50.852;8.098;2024-01-06T02:25:53;4.70;99.90
9790;DHT22;4934;50.852;8.098;2024-01-06T02:28:19;4.70;99.90
9790;DHT22;4934;50.852;8.098;2024-01-06T02:30:45;4.70;99.90
9790;DHT22;4934;50.852;8.098;2024-01-06T02:33:10;4.80;99.90
9790;DHT22;4934;50.852;8.098;2024-01-06T02:35:36;4.80;99.90
9790;DHT22;4934;50.852;8.098;2024-01-06T02:38:02;4.80;99.90
9790;DHT22;4934;50.852;8.098;2024-01-06T02:40:28;4.80;99.90
9790;DHT22;4934;50.852;8.098;2024-01-06T02:42:53;4.80;99.90
9790;DHT22;4934;50.852;8.098;2024-01-06T02:45:19;4.80;99.90
9790;DHT22;4934;50.852;8.098;2024-01-06T02:47:45;4.80;99.90
9790;DHT22;4934;50.852;8.098;2024-01-06T02:50:10;4.80;99.90
9790;DHT22;4934;50.852;8.098;2024-01-06T02:52:36;4.80;99.90
9790;DHT22;4934;50.852;8.098;2024-01-06T02:55:02;4.70;99.90
9790;DHT22;4934;50.852;8.098;2024-01-06T02:57:29;4.80;99.90
9790;DHT22;4934;50.852;8.098;2024-01-06T02:59:54;4.80;99.90
9790;DHT22;4934;50.852;8.098;2024-01-06T03:02:20;4.80;99.90
9790;DHT22;4934;50.852;8.098;2024-01-06T03:04:46;4.80;99.90
9790;DHT22;4934;50.852;8.098;2024-01-06T03:07:11;4.70;99.90
9790;DHT22;4934;50.852;8.098;2024-01-06T03:09:37;4.80;99.90
9790;DHT22;4934;50.852;8.098;2024-01-06T03:12:05;4.80;99.90
9790;DHT22;4934;50.852;8.098;2024-01-06T03:14:31;4.70;99.90
9790;DHT22;4934;50.852;8.098;2024-01-06T03:16:57;4.70;99.90
9790;DHT22;4934;50.852;8.098;2024-01-06T03:19:24;4.80;99.90
9790;DHT22;4934;50.852;8.098;2024-01-06T03:21:52;4.80;99.90
9790;DHT22;4934;50.852;8.098;2024-01-06T03:24:18;4.70;99.90
9790;DHT22;4934;50.852;8.098;2024-01-06T03:26:44;4.70;99.90
9790;DHT22;4934;50.852;8.098;2024-01-06T03:29:09;4.70;99.90
9790;DHT22;4934;50.852;8.098;2024-01-06T03:31:35;4.80;99.90
9790;DHT22;4934;50.852;8.098;2024-01-06T03:34:01;4.80;99.90
9790;DHT22;4934;50.852;8.098;2024-01-06T03:36:26;4.80;99.90
9790;DHT22;4934;50.852;8.098;2024-01-06T03:38:52;4.90;99.90
9790;DHT22;4934;50.852;8.098;2024-01-06T03:41:17;4.90;99.90
9790;DHT22;4934;50.852;8.098;2024-01-06T03:43:43;4.80;99.90
9790;DHT22;4934;50.852;8.098;2024-01-06T03:46:08;4.90;99.90
9790;DHT22;4934;50.852;8.098;2024-01-06T03:48:34;4.90;99.90
9790;DHT22;4934;50.852;8.098;2024-01-06T03:51:00;4.80;99.90
9790;DHT22;4934;50.852;8.098;2024-01-06T03:53:25;4.80;99.90
9790;DHT22;4934;50.852;8.098;2024-01-06T03:55:51;4.80;99.90
9790;DHT22;4934;50.852;8.098;2024-01-06T03:58:17;4.80;99.90
9790;DHT22;4934;50.852;8.098;2024-01-06T04:00:43;4.80;99.90
9790;DHT22;4934;50.852;8.098;2024-01-06T04:03:08;4.80;99.90
9790;DHT22;4934;50.852;8.098;2024-01-06T04:05:34;4.70;99.90
9790;DHT22;4934;50.852;8.098;2024-01-06T04:08:00;4.70;99.90
9790;DHT22;4934;50.852;8.098;2024-01-06T04:10:25;4.70;99.90
9790;DHT22;4934;50.852;8.098;2024-01-06T04:12:51;4.70;99.90
9790;DHT22;4934;50.852;8.098;2024-01-06T04:15:17;4.70;99.90
9790;DHT22;4934;50.852;8.098;2024-01-06T04:17:42;4.70;99.90
9790;DHT22;4934;50.852;8.098;2024-01-06T04:20:08;4.80;99.90
9790;DHT22;4934;50.852;8.098;2024-01-06T04:22:37;4.80;99.90
9790;DHT22;4934;50.852;8.098;2024-01-06T04:25:03;4.80;99.90
9790;DHT22;4934;50.852;8.098;2024-01-06T04:27:29;4.80;99.90
9790;DHT22;4934;50.852;8.098;2024-01-06T04:29:55;4.70;99.90
9790;DHT22;4934;50.852;8.098;2024-01-06T04:32:20;4.70;99.90
9790;DHT22;4934;50.852;8.098;2024-01-06T04:34:46;4.70;99.90
9790;DHT22;4934;50.852;8.098;2024-01-06T04:37:11;4.70;99.90
9790;DHT22;4934;50.852;8.098;2024-01-06T04:39:37;4.60;99.90
9790;DHT22;4934;50.852;8.098;2024-01-06T04:42:04;4.70;99.90
9790;DHT22;4934;50.852;8.098;2024-01-06T04:44:30;4.70;99.90
9790;DHT22;4934;50.852;8.098;2024-01-06T04:46:55;4.80;99.90
9790;DHT22;4934;50.852;8.098;2024-01-06T04:49:21;4.90;99.90
9790;DHT22;4934;50.852;8.098;2024-01-06T04:51:48;4.80;99.90
9790;DHT22;4934;50.852;8.098;2024-01-06T04:54:13;4.80;99.90
9790;DHT22;4934;50.852;8.098;2024-01-06T04:56:39;4.70;99.90
9790;DHT22;4934;50.852;8.098;2024-01-06T04:59:05;4.70;99.90
9790;DHT22;4934;50.852;8.098;2024-01-06T05:01:30;4.70;99.90
9790;DHT22;4934;50.852;8.098;2024-01-06T05:03:56;4.80;99.90
9790;DHT22;4934;50.852;8.098;2024-01-06T05:06:23;4.80;99.90
9790;DHT22;4934;50.852;8.098;2024-01-06T05:08:48;4.80;99.90
9790;DHT22;4934;50.852;8.098;2024-01-06T05:11:14;4.90;99.90
9790;DHT22;4934;50.852;8.098;2024-01-06T05:13:40;4.90;99.90
9790;DHT22;4934;50.852;8.098;2024-01-06T05:16:06;4.80;99.90
9790;DHT22;4934;50.852;8.098;2024-01-06T05:18:32;4.80;99.90
9790;DHT22;4934;50.852;8.098;2024-01-06T05:20:58;4.80;99.90
9790;DHT22;4934;50.852;8.098;2024-01-06T05:23:23;4.80;99.90
9790;DHT22;4934;50.852;8.098;2024-01-06T05:25:49;4.70;99.90
9790;DHT22;4934;50.852;8.098;2024-01-06T05:28:14;4.70;99.90
9790;DHT22;4934;50.852;8.098;2024-01-06T05:30:40;4.70;99.90
9790;DHT22;4934;50.852;8.098;2024-01-06T05:33:08;4.80;99.90
9790;DHT22;4934;50.852;8.098;2024-01-06T05:35:35;4.70;99.90
9790;DHT22;4934;50.852;8.098;2024-01-06T05:38:00;4.70;99.90
9790;DHT22;4934;50.852;8.098;2024-01-06T05:40:26;4.80;99.90
9790;DHT22;4934;50.852;8.098;2024-01-06T05:42:52;4.70;99.90
9790;DHT22;4934;50.852;8.098;2024-01-06T05:45:21;4.80;99.90
9790;DHT22;4934;50.852;8.098;2024-01-06T05:47:46;4.80;99.90
9790;DHT22;4934;50.852;8.098;2024-01-06T05:50:15;4.70;99.90
9790;DHT22;4934;50.852;8.098;2024-01-06T05:52:41;4.80;99.90
9790;DHT22;4934;50.852;8.098;2024-01-06T05:55:08;4.70;99.90
9790;DHT22;4934;50.852;8.098;2024-01-06T05:57:34;4.70;99.90
9790;DHT22;4934;50.852;8.098;2024-01-06T06:00:00;4.70;99.90
9790;DHT22;4934;50.852;8.098;2024-01-06T06:02:26;4.70;99.90
9790;DHT22;4934;50.852;8.098;2024-01-06T06:04:52;4.70;99.90
9790;DHT22;4934;50.852;8.098;2024-01-06T06:07:18;4.80;99.90
9790;DHT22;4934;50.852;8.098;2024-01-06T06:09:44;4.70;99.90
9790;DHT22;4934;50.852;8.098;2024-01-06T06:12:13;4.70;99.90
9790;DHT22;4934;50.852;8.098;2024-01-06T06:14:38;4.80;99.90
9790;DHT22;4934;50.852;8.098;2024-01-06T06:17:04;4.80;99.90
9790;DHT22;4934;50.852;8.098;2024-01-06T06:19:30;4.80;99.90
9790;DHT22;4934;50.852;8.098;2024-01-06T06:21:56;4.80;99.90
9790;DHT22;4934;50.852;8.098;2024-01-06T06:24:22;4.80;99.90
9790;DHT22;4934;50.852;8.098;2024-01-06T06:26:47;4.80;99.90
9790;DHT22;4934;50.852;8.098;2024-01-06T06:29:13;4.80;99.90
9790;DHT22;4934;50.852;8.098;2024-01-06T06:31:38;4.80;99.90
9790;DHT22;4934;50.852;8.098;2024-01-06T06:34:04;4.70;99.90
9790;DHT22;4934;50.852;8.098;2024-01-06T06:36:29;4.80;99.90
9790;DHT22;4934;50.852;8.098;2024-01-06T06:38:55;4.70;99.90
9790;DHT22;4934;50.852;8.098;2024-01-06T06:41:23;4.70;99.90
9790;DHT22;4934;50.852;8.098;2024-01-06T06:43:49;4.70;99.90
9790;DHT22;4934;50.852;8.098;2024-01-06T06:46:14;4.70;99.90
9790;DHT22;4934;50.852;8.098;2024-01-06T06:48:40;4.70;99.90
9790;DHT22;4934;50.852;8.098;2024-01-06T06:51:06;4.70;99.90
9790;DHT22;4934;50.852;8.098;2024-01-06T06:53:31;4.70;99.90
9790;DHT22;4934;50.852;8.098;2024-01-06T06:55:57;4.70;99.90
9790;DHT22;4934;50.852;8.098;2024-01-06T06:58:22;4.70;99.90
9790;DHT22;4934;50.852;8.098;2024-01-06T07:00:49;4.70;99.90
9790;DHT22;4934;50.852;8.098;2024-01-06T07:03:14;4.70;99.90
9790;DHT22;4934;50.852;8.098;2024-01-06T07:05:40;4.70;99.90
9790;DHT22;4934;50.852;8.098;2024-01-06T07:08:05;4.70;99.90
9790;DHT22;4934;50.852;8.098;2024-01-06T07:10:31;4.70;99.90
9790;DHT22;4934;50.852;8.098;2024-01-06T07:12:57;4.70;99.90
9790;DHT22;4934;50.852;8.098;2024-01-06T07:15:22;4.70;99.90
9790;DHT22;4934;50.852;8.098;2024-01-06T07:17:48;4.70;99.90
9790;DHT22;4934;50.852;8.098;2024-01-06T07:20:14;4.70;99.90
9790;DHT22;4934;50.852;8.098;2024-01-06T07:22:39;4.80;99.90
9790;DHT22;4934;50.852;8.098;2024-01-06T07:25:06;4.80;99.90
9790;DHT22;4934;50.852;8.098;2024-01-06T07:27:32;4.80;99.90
9790;DHT22;4934;50.852;8.098;2024-01-06T07:29:58;4.70;99.90
9790;DHT22;4934;50.852;8.098;2024-01-06T07:32:24;4.70;99.90
9790;DHT22;4934;50.852;8.098;2024-01-06T07:34:50;4.70;99.90
9790;DHT22;4934;50.852;8.098;2024-01-06T07:37:16;4.70;99.90
9790;DHT22;4934;50.852;8.098;2024-01-06T07:39:41;4.70;99.90
9790;DHT22;4934;50.852;8.098;2024-01-06T07:42:07;4.60;99.90
9790;DHT22;4934;50.852;8.098;2024-01-06T07:44:33;4.70;99.90
9790;DHT22;4934;50.852;8.098;2024-01-06T07:46:59;4.80;99.90
9790;DHT22;4934;50.852;8.098;2024-01-06T07:49:24;4.80;99.90
9790;DHT22;4934;50.852;8.098;2024-01-06T07:51:50;4.90;99.90
9790;DHT22;4934;50.852;8.098;2024-01-06T07:54:16;4.90;99.90
9790;DHT22;4934;50.852;8.098;2024-01-06T07:56:41;4.90;99.90
9790;DHT22;4934;50.852;8.098;2024-01-06T07:59:09;4.90;99.90
9790;DHT22;4934;50.852;8.098;2024-01-06T08:01:35;4.90;99.90
9790;DHT22;4934;50.852;8.098;2024-01-06T08:04:00;4.80;99.90
9790;DHT22;4934;50.852;8.098;2024-01-06T08:06:26;4.80;99.90
9790;DHT22;4934;50.852;8.098;2024-01-06T08:08:52;4.90;99.90
9790;DHT22;4934;50.852;8.098;2024-01-06T08:11:17;4.90;99.90
9790;DHT22;4934;50.852;8.098;2024-01-06T08:13:43;4.80;99.90
9790;DHT22;4934;50.852;8.098;2024-01-06T08:16:09;4.80;99.90
9790;DHT22;4934;50.852;8.098;2024-01-06T08:18:35;4.90;99.90
9790;DHT22;4934;50.852;8.098;2024-01-06T08:21:00;4.90;99.90
9790;DHT22;4934;50.852;8.098;2024-01-06T08:23:26;4.90;99.90
9790;DHT22;4934;50.852;8.098;2024-01-06T08:25:51;4.90;99.90
9790;DHT22;4934;50.852;8.098;2024-01-06T08:28:17;4.90;99.90
9790;DHT22;4934;50.852;8.098;2024-01-06T08:30:44;4.90;99.90
9790;DHT22;4934;50.852;8.098;2024-01-06T08:33:10;4.90;99.90
9790;DHT22;4934;50.852;8.098;2024-01-06T08:35:35;4.90;99.90
9790;DHT22;4934;50.852;8.098;2024-01-06T08:38:06;5.00;99.90
9790;DHT22;4934;50.852;8.098;2024-01-06T08:40:33;4.90;99.90
9790;DHT22;4934;50.852;8.098;2024-01-06T08:42:58;5.00;99.90
9790;DHT22;4934;50.852;8.098;2024-01-06T08:45:24;5.00;99.90
9790;DHT22;4934;50.852;8.098;2024-01-06T08:47:49;5.00;99.90
9790;DHT22;4934;50.852;8.098;2024-01-06T08:50:15;5.10;99.90
9790;DHT22;4934;50.852;8.098;2024-01-06T08:52:40;5.10;99.90
9790;DHT22;4934;50.852;8.098;2024-01-06T08:55:06;5.10;99.90
9790;DHT22;4934;50.852;8.098;2024-01-06T08:57:32;5.10;99.90
9790;DHT22;4934;50.852;8.098;2024-01-06T08:59:58;5.20;99.90
9790;DHT22;4934;50.852;8.098;2024-01-06T09:02:24;5.20;99.90
9790;DHT22;4934;50.852;8.098;2024-01-06T09:04:49;5.20;99.90
9790;DHT22;4934;50.852;8.098;2024-01-06T09:07:15;5.30;99.90
9790;DHT22;4934;50.852;8.098;2024-01-06T09:09:42;5.30;99.90
9790;DHT22;4934;50.852;8.098;2024-01-06T09:12:08;5.30;99.90
9790;DHT22;4934;50.852;8.098;2024-01-06T09:14:34;5.40;99.90
9790;DHT22;4934;50.852;8.098;2024-01-06T09:16:59;5.30;99.90
9790;DHT22;4934;50.852;8.098;2024-01-06T09:19:25;5.30;99.90
9790;DHT22;4934;50.852;8.098;2024-01-06T09:21:53;5.20;99.90
9790;DHT22;4934;50.852;8.098;2024-01-06T09:24:20;5.20;99.90
9790;DHT22;4934;50.852;8.098;2024-01-06T09:26:45;5.30;99.90
9790;DHT22;4934;50.852;8.098;2024-01-06T09:29:11;5.30;99.90
9790;DHT22;4934;50.852;8.098;2024-01-06T09:31:37;5.30;99.90
9790;DHT22;4934;50.852;8.098;2024-01-06T09:34:03;5.30;99.90
9790;DHT22;4934;50.852;8.098;2024-01-06T09:36:30;5.40;99.90
9790;DHT22;4934;50.852;8.098;2024-01-06T09:38:56;5.40;99.90
9790;DHT22;4934;50.852;8.098;2024-01-06T09:41:22;5.40;99.90
9790;DHT22;4934;50.852;8.098;2024-01-06T09:43:48;5.40;99.90
9790;DHT22;4934;50.852;8.098;2024-01-06T09:48:47;5.40;99.90
9790;DHT22;4934;50.852;8.098;2024-01-06T09:51:16;5.50;99.90
9790;DHT22;4934;50.852;8.098;2024-01-06T09:54:04;5.60;99.90
9790;DHT22;4934;50.852;8.098;2024-01-06T09:56:33;5.70;99.90
9790;DHT22;4934;50.852;8.098;2024-01-06T09:58:59;5.80;99.90
9790;DHT22;4934;50.852;8.098;2024-01-06T10:01:25;5.80;99.90
9790;DHT22;4934;50.852;8.098;2024-01-06T10:03:51;5.70;99.90
9790;DHT22;4934;50.852;8.098;2024-01-06T10:06:17;5.70;99.90
9790;DHT22;4934;50.852;8.098;2024-01-06T10:08:51;5.70;99.90
9790;DHT22;4934;50.852;8.098;2024-01-06T10:11:18;5.70;99.90
9790;DHT22;4934;50.852;8.098;2024-01-06T10:13:43;5.60;99.90
9790;DHT22;4934;50.852;8.098;2024-01-06T10:16:09;5.40;99.90
9790;DHT22;4934;50.852;8.098;2024-01-06T10:18:35;5.50;99.90
9790;DHT22;4934;50.852;8.098;2024-01-06T10:21:04;5.50;99.90
9790;DHT22;4934;50.852;8.098;2024-01-06T10:23:32;5.50;99.90
9790;DHT22;4934;50.852;8.098;2024-01-06T10:25:58;5.60;99.90
9790;DHT22;4934;50.852;8.098;2024-01-06T10:28:24;5.60;99.90
9790;DHT22;4934;50.852;8.098;2024-01-06T10:30:52;5.70;99.90
9790;DHT22;4934;50.852;8.098;2024-01-06T10:33:23;5.70;99.90
9790;DHT22;4934;50.852;8.098;2024-01-06T10:35:49;5.70;99.90
9790;DHT22;4934;50.852;8.098;2024-01-06T10:38:15;5.70;99.90
9790;DHT22;4934;50.852;8.098;2024-01-06T10:43:24;5.80;99.90
9790;DHT22;4934;50.852;8.098;2024-01-06T10:45:51;5.80;99.90
9790;DHT22;4934;50.852;8.098;2024-01-06T10:48:18;5.90;99.90
9790;DHT22;4934;50.852;8.098;2024-01-06T10:50:44;6.00;99.90
9790;DHT22;4934;50.852;8.098;2024-01-06T10:53:11;6.00;99.90
9790;DHT22;4934;50.852;8.098;2024-01-06T10:55:39;6.10;99.90
9790;DHT22;4934;50.852;8.098;2024-01-06T10:58:06;6.10;99.90
9790;DHT22;4934;50.852;8.098;2024-01-06T11:00:33;6.00;99.90
9790;DHT22;4934;50.852;8.098;2024-01-06T11:02:59;6.00;99.90
9790;DHT22;4934;50.852;8.098;2024-01-06T11:05:25;6.00;99.90
9790;DHT22;4934;50.852;8.098;2024-01-06T11:07:52;5.90;99.90
9790;DHT22;4934;50.852;8.098;2024-01-06T11:10:21;5.90;99.90
9790;DHT22;4934;50.852;8.098;2024-01-06T11:13:12;5.90;99.90
9790;DHT22;4934;50.852;8.098;2024-01-06T11:18:08;5.70;99.90
9790;DHT22;4934;50.852;8.098;2024-01-06T11:20:34;5.70;99.90
9790;DHT22;4934;50.852;8.098;2024-01-06T11:23:28;5.60;99.90
9790;DHT22;4934;50.852;8.098;2024-01-06T11:25:54;5.50;99.90
9790;DHT22;4934;50.852;8.098;2024-01-06T11:28:21;5.30;99.90
9790;DHT22;4934;50.852;8.098;2024-01-06T11:30:46;5.10;99.90
9790;DHT22;4934;50.852;8.098;2024-01-06T11:33:12;5.00;99.90
9790;DHT22;4934;50.852;8.098;2024-01-06T11:35:38;5.10;99.90
9790;DHT22;4934;50.852;8.098;2024-01-06T11:38:07;5.00;99.90
9790;DHT22;4934;50.852;8.098;2024-01-06T11:40:34;4.90;99.90
9790;DHT22;4934;50.852;8.098;2024-01-06T11:45:28;4.90;99.90
9790;DHT22;4934;50.852;8.098;2024-01-06T11:47:58;4.80;99.90
9790;DHT22;4934;50.852;8.098;2024-01-06T11:50:26;4.80;99.90
9790;DHT22;4934;50.852;8.098;2024-01-06T11:52:52;4.60;99.90
9790;DHT22;4934;50.852;8.098;2024-01-06T11:55:18;4.60;99.90
9790;DHT22;4934;50.852;8.098;2024-01-06T11:57:44;4.70;99.90
9790;DHT22;4934;50.852;8.098;2024-01-06T12:00:11;4.70;99.90
9790;DHT22;4934;50.852;8.098;2024-01-06T12:02:39;4.70;99.90
9790;DHT22;4934;50.852;8.098;2024-01-06T12:05:04;4.70;99.90
9790;DHT22;4934;50.852;8.098;2024-01-06T12:07:30;4.80;99.90
9790;DHT22;4934;50.852;8.098;2024-01-06T12:10:03;4.70;99.90
9790;DHT22;4934;50.852;8.098;2024-01-06T12:12:29;4.70;99.90
9790;DHT22;4934;50.852;8.098;2024-01-06T12:14:54;4.80;99.90
9790;DHT22;4934;50.852;8.098;2024-01-06T12:17:21;4.90;99.90
9790;DHT22;4934;50.852;8.098;2024-01-06T12:19:47;4.90;99.90
9790;DHT22;4934;50.852;8.098;2024-01-06T12:22:14;4.90;99.90
9790;DHT22;4934;50.852;8.098;2024-01-06T12:24:41;4.90;99.90
9790;DHT22;4934;50.852;8.098;2024-01-06T12:27:08;4.90;99.90
9790;DHT22;4934;50.852;8.098;2024-01-06T12:29:41;4.90;99.90
9790;DHT22;4934;50.852;8.098;2024-01-06T12:32:07;4.90;99.90
9790;DHT22;4934;50.852;8.098;2024-01-06T12:34:34;4.90;99.90
9790;DHT22;4934;50.852;8.098;2024-01-06T12:37:00;4.90;99.90
9790;DHT22;4934;50.852;8.098;2024-01-06T12:39:41;4.90;99.90
9790;DHT22;4934;50.852;8.098;2024-01-06T12:42:08;5.00;99.90
9790;DHT22;4934;50.852;8.098;2024-01-06T12:44:34;4.90;99.90
9790;DHT22;4934;50.852;8.098;2024-01-06T12:47:04;4.90;99.90
9790;DHT22;4934;50.852;8.098;2024-01-06T12:49:30;4.90;99.90
9790;DHT22;4934;50.852;8.098;2024-01-06T12:51:56;4.90;99.90
9790;DHT22;4934;50.852;8.098;2024-01-06T12:54:23;4.80;99.90
9790;DHT22;4934;50.852;8.098;2024-01-06T12:56:49;4.70;99.90
9790;DHT22;4934;50.852;8.098;2024-01-06T12:59:15;4.80;99.90
9790;DHT22;4934;50.852;8.098;2024-01-06T13:01:41;4.70;99.90
9790;DHT22;4934;50.852;8.098;2024-01-06T13:04:07;4.80;99.90
9790;DHT22;4934;50.852;8.098;2024-01-06T13:06:32;4.70;99.90
9790;DHT22;4934;50.852;8.098;2024-01-06T13:09:10;4.80;99.90
9790;DHT22;4934;50.852;8.098;2024-01-06T13:11:41;4.60;99.90
9790;DHT22;4934;50.852;8.098;2024-01-06T13:14:07;4.70;99.90
9790;DHT22;4934;50.852;8.098;2024-01-06T13:16:33;4.70;99.90
9790;DHT22;4934;50.852;8.098;2024-01-06T13:18:59;4.80;99.90
9790;DHT22;4934;50.852;8.098;2024-01-06T13:21:25;4.70;99.90
9790;DHT22;4934;50.852;8.098;2024-01-06T13:23:51;4.80;99.90
9790;DHT22;4934;50.852;8.098;2024-01-06T13:26:16;4.80;99.90
9790;DHT22;4934;50.852;8.098;2024-01-06T13:28:42;4.80;99.90
9790;DHT22;4934;50.852;8.098;2024-01-06T13:31:08;4.70;99.90
9790;DHT22;4934;50.852;8.098;2024-01-06T13:33:35;4.70;99.90
9790;DHT22;4934;50.852;8.098;2024-01-06T13:36:00;4.60;99.90
9790;DHT22;4934;50.852;8.098;2024-01-06T13:38:26;4.70;99.90
9790;DHT22;4934;50.852;8.098;2024-01-06T13:41:07;4.70;99.90
9790;DHT22;4934;50.852;8.098;2024-01-06T13:43:33;4.60;99.90
9790;DHT22;4934;50.852;8.098;2024-01-06T13:45:58;4.60;99.90
9790;DHT22;4934;50.852;8.098;2024-01-06T13:48:24;4.60;99.90
9790;DHT22;4934;50.852;8.098;2024-01-06T13:50:50;4.60;99.90
9790;DHT22;4934;50.852;8.098;2024-01-06T13:53:16;4.50;99.90
9790;DHT22;4934;50.852;8.098;2024-01-06T13:55:41;4.30;99.90
9790;DHT22;4934;50.852;8.098;2024-01-06T13:58:07;4.10;99.90
9790;DHT22;4934;50.852;8.098;2024-01-06T14:00:35;4.00;99.90
9790;DHT22;4934;50.852;8.098;2024-01-06T14:03:01;3.70;99.90
9790;DHT22;4934;50.852;8.098;2024-01-06T14:05:26;3.70;99.90
9790;DHT22;4934;50.852;8.098;2024-01-06T14:07:53;3.70;99.90
9790;DHT22;4934;50.852;8.098;2024-01-06T14:10:18;3.70;99.90
9790;DHT22;4934;50.852;8.098;2024-01-06T14:12:44;3.60;99.90
9790;DHT22;4934;50.852;8.098;2024-01-06T14:15:10;3.60;99.90
9790;DHT22;4934;50.852;8.098;2024-01-06T14:17:35;3.60;99.90
9790;DHT22;4934;50.852;8.098;2024-01-06T14:20:01;3.60;99.90
9790;DHT22;4934;50.852;8.098;2024-01-06T14:22:27;3.70;99.90
9790;DHT22;4934;50.852;8.098;2024-01-06T14:24:53;3.70;99.90
9790;DHT22;4934;50.852;8.098;2024-01-06T14:27:19;3.70;99.90
9790;DHT22;4934;50.852;8.098;2024-01-06T14:29:45;3.80;99.90
9790;DHT22;4934;50.852;8.098;2024-01-06T14:32:10;3.80;99.90
9790;DHT22;4934;50.852;8.098;2024-01-06T14:34:36;3.90;99.90
9790;DHT22;4934;50.852;8.098;2024-01-06T14:37:02;4.00;99.90
9790;DHT22;4934;50.852;8.098;2024-01-06T14:39:27;4.00;99.90
9790;DHT22;4934;50.852;8.098;2024-01-06T14:41:53;4.00;99.90
9790;DHT22;4934;50.852;8.098;2024-01-06T14:44:19;4.00;99.90
9790;DHT22;4934;50.852;8.098;2024-01-06T14:46:48;3.90;99.90
9790;DHT22;4934;50.852;8.098;2024-01-06T14:49:18;3.80;99.90
9790;DHT22;4934;50.852;8.098;2024-01-06T14:51:44;3.80;99.90
9790;DHT22;4934;50.852;8.098;2024-01-06T14:54:10;3.70;99.90
9790;DHT22;4934;50.852;8.098;2024-01-06T14:56:39;3.60;99.90
9790;DHT22;4934;50.852;8.098;2024-01-06T14:59:09;3.70;99.90
9790;DHT22;4934;50.852;8.098;2024-01-06T15:01:35;3.70;99.90
9790;DHT22;4934;50.852;8.098;2024-01-06T15:04:00;3.70;99.90
9790;DHT22;4934;50.852;8.098;2024-01-06T15:06:26;3.60;99.90
9790;DHT22;4934;50.852;8.098;2024-01-06T15:08:51;3.50;99.90
9790;DHT22;4934;50.852;8.098;2024-01-06T15:11:17;3.50;99.90
9790;DHT22;4934;50.852;8.098;2024-01-06T15:13:42;3.50;99.90
9790;DHT22;4934;50.852;8.098;2024-01-06T15:16:08;3.50;99.90
9790;DHT22;4934;50.852;8.098;2024-01-06T15:18:34;3.50;99.90
9790;DHT22;4934;50.852;8.098;2024-01-06T15:21:01;3.70;99.90
9790;DHT22;4934;50.852;8.098;2024-01-06T15:23:27;3.70;99.90
9790;DHT22;4934;50.852;8.098;2024-01-06T15:25:52;3.60;99.90
9790;DHT22;4934;50.852;8.098;2024-01-06T15:28:18;3.60;99.90
9790;DHT22;4934;50.852;8.098;2024-01-06T15:30:43;3.60;99.90
9790;DHT22;4934;50.852;8.098;2024-01-06T15:33:09;3.60;99.90
9790;DHT22;4934;50.852;8.098;2024-01-06T15:35:34;3.50;99.90
9790;DHT22;4934;50.852;8.098;2024-01-06T15:38:00;3.50;99.90
9790;DHT22;4934;50.852;8.098;2024-01-06T15:40:25;3.50;99.90
9790;DHT22;4934;50.852;8.098;2024-01-06T15:42:51;3.40;99.90
9790;DHT22;4934;50.852;8.098;2024-01-06T15:45:17;3.50;99.90
9790;DHT22;4934;50.852;8.098;2024-01-06T15:47:46;3.50;99.90
9790;DHT22;4934;50.852;8.098;2024-01-06T15:50:12;3.60;99.90
9790;DHT22;4934;50.852;8.098;2024-01-06T15:52:38;3.70;99.90
9790;DHT22;4934;50.852;8.098;2024-01-06T15:55:04;3.70;99.90
9790;DHT22;4934;50.852;8.098;2024-01-06T15:57:29;3.70;99.90
9790;DHT22;4934;50.852;8.098;2024-01-06T15:59:57;3.80;99.90
9790;DHT22;4934;50.852;8.098;2024-01-06T16:02:24;3.70;99.90
9790;DHT22;4934;50.852;8.098;2024-01-06T16:04:49;3.60;99.90
9790;DHT22;4934;50.852;8.098;2024-01-06T16:07:15;3.60;99.90
9790;DHT22;4934;50.852;8.098;2024-01-06T16:09:41;3.60;99.90
9790;DHT22;4934;50.852;8.098;2024-01-06T16:12:07;3.50;99.90
9790;DHT22;4934;50.852;8.098;2024-01-06T16:14:33;3.50;99.90
9790;DHT22;4934;50.852;8.098;2024-01-06T16:16:59;3.40;99.90
9790;DHT22;4934;50.852;8.098;2024-01-06T16:19:26;3.40;99.90
9790;DHT22;4934;50.852;8.098;2024-01-06T16:21:52;3.50;99.90